createdAt,value
2022-12-27T00:01:43.446Z,101714.56
2022-12-27T00:04:28.878Z,101721.47
2022-12-27T00:07:14.581Z,101712.16
2022-12-27T00:10:00.330Z,101709.50
2022-12-27T00:12:45.865Z,101702.00
2022-12-27T00:15:32.990Z,101700.84
2022-12-27T00:18:18.545Z,101694.34
2022-12-27T00:21:05.381Z,101700.53
2022-12-27T00:23:54.690Z,101698.41
2022-12-27T00:26:41.068Z,101699.19
2022-12-27T00:29:26.702Z,101700.56
2022-12-27T00:32:12.604Z,101700.22
2022-12-27T00:34:57.955Z,101703.69
2022-12-27T00:37:43.463Z,101706.69
2022-12-27T00:40:29.029Z,101706.41
2022-12-27T00:43:14.550Z,101705.53
2022-12-27T00:46:00.108Z,101691.19
2022-12-27T00:48:47.352Z,101684.25
2022-12-27T00:51:32.727Z,101685.38
2022-12-27T00:54:18.048Z,101690.31
2022-12-27T00:57:04.336Z,101681.63
2022-12-27T00:59:49.630Z,101667.69
2022-12-27T01:02:34.994Z,101678.63
2022-12-27T01:05:20.249Z,101679.59
2022-12-27T01:08:06.045Z,101658.13
2022-12-27T01:10:51.766Z,101664.13
2022-12-27T01:13:37.925Z,101655.47
2022-12-27T01:16:24.951Z,101651.22
2022-12-27T01:19:10.327Z,101649.75
2022-12-27T01:21:55.748Z,101647.28
2022-12-27T01:24:40.939Z,101643.13
2022-12-27T01:27:26.276Z,101640.53
2022-12-27T01:30:12.305Z,101637.47
2022-12-27T01:32:58.186Z,101631.91
2022-12-27T01:35:43.924Z,101636.50
2022-12-27T01:38:29.129Z,101639.41
2022-12-27T01:41:38.691Z,101644.75
2022-12-27T01:44:39.881Z,101644.19
2022-12-27T01:47:35.745Z,101641.81
2022-12-27T01:50:27.498Z,101644.47
2022-12-27T01:53:19.107Z,101634.22
2022-12-27T01:56:09.775Z,101629.16
2022-12-27T01:59:01.506Z,101618.09
2022-12-27T02:01:48.762Z,101620.22
2022-12-27T02:04:34.873Z,101618.72
2022-12-27T02:07:27.124Z,101612.06
2022-12-27T02:10:12.535Z,101606.31
2022-12-27T02:12:59.691Z,101604.00
2022-12-27T02:15:46.820Z,101595.69
2022-12-27T02:18:32.243Z,101585.84
2022-12-27T02:21:59.515Z,101583.47
2022-12-27T02:25:17.305Z,101582.91
2022-12-27T02:28:44.719Z,101583.69
2022-12-27T02:31:39.119Z,101578.50
2022-12-27T02:34:30.628Z,101583.63
2022-12-27T02:37:16.258Z,101580.25
2022-12-27T02:40:31.321Z,101572.66
2022-12-27T02:43:35.648Z,101571.75
2022-12-27T02:46:42.729Z,101567.59
2022-12-27T02:49:55.430Z,101560.94
2022-12-27T02:53:08.380Z,101550.94
2022-12-27T02:56:50.164Z,101550.34
2022-12-27T03:00:07.917Z,101542.03
2022-12-27T03:03:29.139Z,101538.97
2022-12-27T03:06:41.598Z,101539.41
2022-12-27T03:10:07.298Z,101542.19
2022-12-27T03:13:42.298Z,101534.66
2022-12-27T03:16:57.785Z,101524.69
2022-12-27T03:20:10.167Z,101525.75
2022-12-27T03:23:16.424Z,101521.78
2022-12-27T03:26:05.605Z,101513.59
2022-12-27T03:29:11.065Z,101502.03
2022-12-27T03:32:20.305Z,101504.09
2022-12-27T03:35:19.757Z,101492.38
2022-12-27T03:38:07.594Z,101490.03
2022-12-27T03:41:19.111Z,101491.34
2022-12-27T03:44:24.328Z,101475.00
2022-12-27T03:47:17.368Z,101456.38
2022-12-27T03:50:26.000Z,101452.16
2022-12-27T03:53:23.186Z,101464.16
2022-12-27T03:56:10.087Z,101454.56
2022-12-27T03:58:57.598Z,101459.50
2022-12-27T04:01:43.024Z,101454.91
2022-12-27T04:04:28.848Z,101446.88
2022-12-27T04:07:15.260Z,101446.38
2022-12-27T04:10:19.119Z,101429.75
2022-12-27T04:13:23.259Z,101418.25
2022-12-27T04:16:27.251Z,101411.00
2022-12-27T04:19:31.417Z,101403.72
2022-12-27T04:22:35.631Z,101397.97
2022-12-27T04:25:39.787Z,101387.03
2022-12-27T04:28:43.821Z,101373.38
2022-12-27T04:31:48.070Z,101363.94
2022-12-27T04:34:43.706Z,101363.19
2022-12-27T04:37:29.344Z,101363.50
2022-12-27T04:40:33.162Z,101349.91
2022-12-27T04:43:37.519Z,101353.72
2022-12-27T04:46:43.667Z,101339.38
2022-12-27T04:49:47.700Z,101327.66
2022-12-27T04:52:53.039Z,101323.50
2022-12-27T04:55:38.529Z,101314.91
2022-12-27T04:58:24.402Z,101301.09
2022-12-27T05:01:28.220Z,101291.59
2022-12-27T05:04:13.870Z,101281.31
2022-12-27T05:07:20.042Z,101275.25
2022-12-27T05:10:25.064Z,101275.25
2022-12-27T05:13:31.239Z,101272.56
2022-12-27T05:16:17.015Z,101269.81
2022-12-27T05:19:02.781Z,101262.84
2022-12-27T05:22:06.899Z,101239.53
2022-12-27T05:25:11.293Z,101234.22
2022-12-27T05:27:56.810Z,101221.22
2022-12-27T05:30:44.591Z,101222.94
2022-12-27T05:33:33.143Z,101215.19
2022-12-27T05:36:19.327Z,101202.41
2022-12-27T05:39:04.840Z,101191.28
2022-12-27T05:41:50.267Z,101179.25
2022-12-27T05:44:35.611Z,101166.34
2022-12-27T05:47:20.937Z,101161.22
2022-12-27T05:50:06.729Z,101161.28
2022-12-27T05:52:51.953Z,101151.00
2022-12-27T05:55:38.031Z,101150.25
2022-12-27T05:58:24.341Z,101137.44
2022-12-27T06:01:12.840Z,101125.50
2022-12-27T06:03:58.122Z,101116.97
2022-12-27T06:06:43.333Z,101102.47
2022-12-27T06:09:28.697Z,101098.28
2022-12-27T06:12:14.115Z,101097.66
2022-12-27T06:14:59.798Z,101098.75
2022-12-27T06:17:45.350Z,101090.38
2022-12-27T06:20:30.766Z,101083.63
2022-12-27T06:23:16.851Z,101081.16
2022-12-27T06:26:10.936Z,101073.59
2022-12-27T06:28:58.293Z,101066.03
2022-12-27T06:31:43.446Z,101049.75
2022-12-27T06:34:28.941Z,101055.91
2022-12-27T06:37:14.864Z,101043.06
2022-12-27T06:40:00.135Z,101034.56
2022-12-27T06:42:45.720Z,101027.78
2022-12-27T06:45:31.164Z,101027.06
2022-12-27T06:48:16.611Z,101022.75
2022-12-27T06:51:10.710Z,101001.25
2022-12-27T06:53:56.470Z,100984.06
2022-12-27T06:56:41.754Z,100986.78
2022-12-27T06:59:27.163Z,100979.97
2022-12-27T07:02:12.425Z,100980.91
2022-12-27T07:04:58.174Z,100974.88
2022-12-27T07:07:43.530Z,100969.75
2022-12-27T07:10:29.122Z,100964.69
2022-12-27T07:13:14.664Z,100947.53
2022-12-27T07:15:59.933Z,100958.00
2022-12-27T07:18:45.629Z,100956.47
2022-12-27T07:21:31.695Z,100948.09
2022-12-27T07:24:17.165Z,100941.81
2022-12-27T07:27:02.676Z,100928.84
2022-12-27T07:29:48.255Z,100921.66
2022-12-27T07:32:33.792Z,100908.50
2022-12-27T07:35:19.407Z,100909.59
2022-12-27T07:38:04.788Z,100902.84
2022-12-27T07:40:50.372Z,100892.78
2022-12-27T07:43:36.315Z,100886.97
2022-12-27T07:46:24.497Z,100874.25
2022-12-27T07:49:17.414Z,100880.44
2022-12-27T07:52:04.347Z,100861.50
2022-12-27T07:54:50.121Z,100851.31
2022-12-27T07:57:35.847Z,100841.91
2022-12-27T08:00:21.604Z,100815.97
2022-12-27T08:03:07.228Z,100796.19
2022-12-27T08:05:53.288Z,100810.94
2022-12-27T08:08:45.140Z,100787.84
2022-12-27T08:11:31.367Z,100780.97
2022-12-27T08:14:16.873Z,100774.97
2022-12-27T08:17:12.550Z,100770.66
2022-12-27T08:19:58.351Z,100772.44
2022-12-27T08:22:43.787Z,100769.91
2022-12-27T08:25:29.857Z,100767.34
2022-12-27T08:28:17.281Z,100763.13
2022-12-27T08:31:10.213Z,100757.94
2022-12-27T08:33:58.650Z,100760.59
2022-12-27T08:36:55.284Z,100756.31
2022-12-27T08:39:42.257Z,100752.88
2022-12-27T08:42:27.843Z,100737.38
2022-12-27T08:45:13.667Z,100744.34
2022-12-27T08:48:00.330Z,100735.75
2022-12-27T08:50:45.708Z,100733.13
2022-12-27T08:53:31.325Z,100728.81
2022-12-27T08:56:18.255Z,100725.41
2022-12-27T08:59:03.985Z,100728.06
2022-12-27T09:01:49.512Z,100721.19
2022-12-27T09:04:35.062Z,100703.00
2022-12-27T09:07:20.340Z,100706.41
2022-12-27T09:10:06.739Z,100696.84
2022-12-27T09:12:52.638Z,100698.59
2022-12-27T09:15:38.760Z,100691.69
2022-12-27T09:18:24.381Z,100692.59
2022-12-27T09:21:13.087Z,100677.03
2022-12-27T09:23:59.616Z,100676.22
2022-12-27T09:26:44.872Z,100670.16
2022-12-27T09:29:30.494Z,100667.56
2022-12-27T09:32:16.198Z,100670.19
2022-12-27T09:35:02.253Z,100662.41
2022-12-27T09:37:47.857Z,100662.41
2022-12-27T09:40:33.207Z,100645.94
2022-12-27T09:43:27.388Z,100641.63
2022-12-27T09:46:26.640Z,100630.38
2022-12-27T09:49:17.910Z,100615.66
2022-12-27T09:52:10.529Z,100616.53
2022-12-27T09:55:13.999Z,100607.03
2022-12-27T09:58:13.973Z,100605.34
2022-12-27T10:01:00.534Z,100604.50
2022-12-27T10:03:46.224Z,100611.41
2022-12-27T10:06:49.653Z,100602.75
2022-12-27T10:09:46.819Z,100593.25
2022-12-27T10:13:08.461Z,100588.09
2022-12-27T10:16:30.029Z,100574.28
2022-12-27T10:19:41.403Z,100568.22
2022-12-27T10:22:46.264Z,100582.09
2022-12-27T10:25:35.116Z,100565.63
2022-12-27T10:28:29.075Z,100562.19
2022-12-27T10:31:18.141Z,100554.38
2022-12-27T10:34:07.582Z,100545.69
2022-12-27T10:36:55.919Z,100541.38
2022-12-27T10:39:42.522Z,100556.13
2022-12-27T10:42:41.881Z,100543.16
2022-12-27T10:45:42.768Z,100525.81
2022-12-27T10:48:47.383Z,100533.63
2022-12-27T10:51:42.544Z,100518.88
2022-12-27T10:54:31.244Z,100502.38
2022-12-27T10:57:37.000Z,100507.59
2022-12-27T11:00:23.447Z,100499.78
2022-12-27T11:03:19.263Z,100497.16
2022-12-27T11:06:17.670Z,100488.47
2022-12-27T11:09:26.958Z,100489.34
2022-12-27T11:12:18.675Z,100476.31
2022-12-27T11:15:19.028Z,100486.72
2022-12-27T11:18:12.260Z,100476.28
2022-12-27T11:20:59.461Z,100469.34
2022-12-27T11:23:49.623Z,100466.75
2022-12-27T11:26:55.271Z,100463.25
2022-12-27T11:29:45.766Z,100464.09
2022-12-27T11:32:31.792Z,100452.78
2022-12-27T11:35:20.684Z,100453.66
2022-12-27T11:38:06.107Z,100457.13
2022-12-27T11:41:03.474Z,100443.22
2022-12-27T11:43:59.184Z,100445.84
2022-12-27T11:46:58.778Z,100438.88
2022-12-27T11:49:56.397Z,100441.47
2022-12-27T11:52:45.032Z,100437.09
2022-12-27T11:55:53.750Z,100437.13
2022-12-27T11:58:59.801Z,100432.75
2022-12-27T12:01:51.368Z,100428.41
2022-12-27T12:04:55.813Z,100417.06
2022-12-27T12:07:45.022Z,100415.31
2022-12-27T12:10:57.511Z,100404.88
2022-12-27T12:13:52.418Z,100400.50
2022-12-27T12:16:56.525Z,100374.44
2022-12-27T12:19:59.157Z,100373.56
2022-12-27T12:23:20.273Z,100361.38
2022-12-27T12:26:12.781Z,100351.81
2022-12-27T12:29:34.077Z,100345.66
2022-12-27T12:32:53.344Z,100354.31
2022-12-27T12:35:57.396Z,100355.13
2022-12-27T12:38:57.702Z,100340.31
2022-12-27T12:42:12.341Z,100322.03
2022-12-27T12:45:06.651Z,100316.81
2022-12-27T12:48:28.742Z,100317.72
2022-12-27T12:51:38.277Z,100317.72
2022-12-27T12:54:51.788Z,100306.44
2022-12-27T12:57:40.208Z,100299.50
2022-12-27T13:00:28.968Z,100302.13
2022-12-27T13:03:46.547Z,100308.22
2022-12-27T13:07:01.049Z,100300.44
2022-12-27T13:10:20.715Z,100288.28
2022-12-27T13:13:30.991Z,100285.72
2022-12-27T13:16:38.478Z,100252.69
2022-12-27T13:19:47.179Z,100243.16
2022-12-27T13:22:44.641Z,100243.16
2022-12-27T13:26:00.810Z,100233.66
2022-12-27T13:28:52.760Z,100212.78
2022-12-27T13:32:13.668Z,100213.66
2022-12-27T13:35:29.670Z,100206.66
2022-12-27T13:38:26.780Z,100217.06
2022-12-27T13:41:30.142Z,100218.78
2022-12-27T13:44:36.655Z,100217.03
2022-12-27T13:47:39.782Z,100208.28
2022-12-27T13:50:48.709Z,100216.09
2022-12-27T13:53:52.386Z,100224.78
2022-12-27T13:57:15.399Z,100216.94
2022-12-27T14:00:04.496Z,100223.03
2022-12-27T14:03:13.701Z,100216.88
2022-12-27T14:06:17.651Z,100221.19
2022-12-27T14:09:30.801Z,100204.69
2022-12-27T14:12:34.531Z,100207.31
2022-12-27T14:15:24.636Z,100196.88
2022-12-27T14:18:27.418Z,100197.75
2022-12-27T14:21:40.157Z,100210.84
2022-12-27T14:24:37.758Z,100220.50
2022-12-27T14:27:44.953Z,100243.19
2022-12-27T14:30:30.531Z,100252.25
2022-12-27T14:33:53.419Z,100249.88
2022-12-27T14:37:09.923Z,100259.53
2022-12-27T14:40:29.912Z,100253.50
2022-12-27T14:43:49.198Z,100261.34
2022-12-27T14:47:13.879Z,100271.72
2022-12-27T14:50:30.540Z,100274.34
2022-12-27T14:53:31.477Z,100254.41
2022-12-27T14:56:19.662Z,100248.34
2022-12-27T14:59:41.482Z,100244.88
2022-12-27T15:03:01.870Z,100233.63
2022-12-27T15:06:46.312Z,100237.94
2022-12-27T15:10:05.764Z,100232.75
2022-12-27T15:13:03.727Z,100225.84
2022-12-27T15:15:56.955Z,100227.56
2022-12-27T15:19:06.557Z,100208.53
2022-12-27T15:22:16.562Z,100216.31
2022-12-27T15:25:20.764Z,100231.03
2022-12-27T15:28:24.539Z,100225.81
2022-12-27T15:31:20.597Z,100225.84
2022-12-27T15:34:33.189Z,100224.09
2022-12-27T15:37:47.835Z,100223.25
2022-12-27T15:40:33.192Z,100224.09
2022-12-27T15:43:50.271Z,100229.28
2022-12-27T15:46:58.019Z,100230.16
2022-12-27T15:50:28.665Z,100227.53
2022-12-27T15:53:32.717Z,100231.84
2022-12-27T15:56:32.557Z,100218.03
2022-12-27T15:59:41.569Z,100228.41
2022-12-27T16:02:48.995Z,100222.34
2022-12-27T16:05:49.442Z,100221.47
2022-12-27T16:08:40.217Z,100221.47
2022-12-27T16:12:07.823Z,100218.88
2022-12-27T16:15:31.860Z,100203.28
2022-12-27T16:18:37.067Z,100218.03
2022-12-27T16:21:25.342Z,100213.69
2022-12-27T16:24:19.606Z,100206.75
2022-12-27T16:27:05.698Z,100207.59
2022-12-27T16:29:51.303Z,100207.56
2022-12-27T16:32:37.201Z,100211.03
2022-12-27T16:35:23.417Z,100208.44
2022-12-27T16:38:22.129Z,100214.47
2022-12-27T16:41:17.254Z,100207.53
2022-12-27T16:44:02.497Z,100203.19
2022-12-27T16:47:02.329Z,100204.94
2022-12-27T16:50:06.279Z,100211.84
2022-12-27T16:53:00.971Z,100210.13
2022-12-27T16:56:04.699Z,100209.28
2022-12-27T16:58:50.665Z,100206.69
2022-12-27T17:01:36.114Z,100221.34
2022-12-27T17:04:49.710Z,100222.19
2022-12-27T17:07:44.640Z,100225.63
2022-12-27T17:10:35.195Z,100221.28
2022-12-27T17:13:47.668Z,100223.00
2022-12-27T17:16:42.956Z,100221.28
2022-12-27T17:20:05.720Z,100224.78
2022-12-27T17:22:54.531Z,100224.78
2022-12-27T17:25:55.113Z,100225.69
2022-12-27T17:29:01.542Z,100227.38
2022-12-27T17:32:00.542Z,100216.16
2022-12-27T17:35:07.469Z,100228.28
2022-12-27T17:38:05.436Z,100231.78
2022-12-27T17:41:11.987Z,100226.59
2022-12-27T17:44:40.879Z,100222.25
2022-12-27T17:48:01.765Z,100235.22
2022-12-27T17:50:48.253Z,100244.72
2022-12-27T17:53:52.166Z,100245.59
2022-12-27T17:57:05.640Z,100236.06
2022-12-27T17:59:51.302Z,100233.41
2022-12-27T18:02:40.194Z,100236.00
2022-12-27T18:05:33.593Z,100231.63
2022-12-27T18:08:26.172Z,100232.50
2022-12-27T18:11:15.724Z,100235.06
2022-12-27T18:14:01.963Z,100234.19
2022-12-27T18:16:47.884Z,100233.28
2022-12-27T18:19:33.573Z,100241.91
2022-12-27T18:22:20.213Z,100241.03
2022-12-27T18:25:24.657Z,100242.69
2022-12-27T18:28:21.254Z,100260.78
2022-12-27T18:31:47.767Z,100260.72
2022-12-27T18:35:00.581Z,100265.03
2022-12-27T18:37:46.469Z,100261.53
2022-12-27T18:40:34.506Z,100274.41
2022-12-27T18:43:20.143Z,100265.75
2022-12-27T18:46:05.982Z,100270.09
2022-12-27T18:48:53.146Z,100268.34
2022-12-27T18:51:39.849Z,100276.94
2022-12-27T18:54:28.204Z,100264.88
2022-12-27T18:57:46.484Z,100264.72
2022-12-27T19:00:32.623Z,100282.88
2022-12-27T19:03:20.682Z,100275.06
2022-12-27T19:06:13.650Z,100265.56
2022-12-27T19:08:59.140Z,100280.22
2022-12-27T19:12:23.312Z,100268.16
2022-12-27T19:15:19.269Z,100258.72
2022-12-27T19:18:17.722Z,100265.56
2022-12-27T19:21:06.877Z,100263.84
2022-12-27T19:23:52.590Z,100263.84
2022-12-27T19:26:38.032Z,100263.78
2022-12-27T19:29:27.334Z,100274.09
2022-12-27T19:32:16.929Z,100275.81
2022-12-27T19:35:04.155Z,100256.75
2022-12-27T19:37:49.735Z,100252.44
2022-12-27T19:40:35.175Z,100255.88
2022-12-27T19:43:21.063Z,100244.66
2022-12-27T19:46:06.873Z,100250.72
2022-12-27T19:49:31.836Z,100255.81
2022-12-27T19:51:58.760Z,100260.94
2022-12-27T19:54:44.222Z,100262.69
2022-12-27T19:57:30.502Z,100248.91
2022-12-27T20:00:17.664Z,100242.84
2022-12-27T20:03:04.624Z,100241.16
2022-12-27T20:06:12.699Z,100241.97
2022-12-27T20:08:56.692Z,100247.97
2022-12-27T20:11:42.129Z,100259.09
2022-12-27T20:14:27.545Z,100252.25
2022-12-27T20:17:13.137Z,100241.03
2022-12-27T20:19:58.913Z,100248.88
2022-12-27T20:22:44.552Z,100244.56
2022-12-27T20:25:32.756Z,100236.75
2022-12-27T20:28:19.083Z,100255.72
2022-12-27T20:31:08.754Z,100250.53
2022-12-27T20:33:56.267Z,100253.09
2022-12-27T20:36:42.250Z,100248.72
2022-12-27T20:39:27.631Z,100242.63
2022-12-27T20:42:12.971Z,100263.31
2022-12-27T20:44:58.277Z,100258.09
2022-12-27T20:47:43.849Z,100263.28
2022-12-27T20:50:29.452Z,100270.13
2022-12-27T20:53:14.780Z,100261.38
2022-12-27T20:56:01.418Z,100264.84
2022-12-27T20:58:47.152Z,100276.03
2022-12-27T21:01:32.632Z,100278.59
2022-12-27T21:04:18.385Z,100279.47
2022-12-27T21:07:03.714Z,100280.22
2022-12-27T21:09:49.226Z,100283.63
2022-12-27T21:12:35.653Z,100293.22
2022-12-27T21:15:21.132Z,100295.81
2022-12-27T21:18:06.378Z,100301.81
2022-12-27T21:20:51.855Z,100303.56
2022-12-27T21:23:38.443Z,100317.38
2022-12-27T21:26:36.218Z,100301.78
2022-12-27T21:29:21.621Z,100308.59
2022-12-27T21:32:07.011Z,100309.38
2022-12-27T21:34:52.472Z,100307.72
2022-12-27T21:37:37.866Z,100325.88
2022-12-27T21:40:23.224Z,100325.09
2022-12-27T21:43:08.383Z,100337.97
2022-12-27T21:45:53.945Z,100336.19
2022-12-27T21:48:39.403Z,100329.41
2022-12-27T21:51:26.511Z,100339.81
2022-12-27T21:54:13.990Z,100340.84
2022-12-27T21:56:59.924Z,100337.47
2022-12-27T21:59:45.199Z,100337.56
2022-12-27T22:02:30.779Z,100348.84
2022-12-27T22:05:16.989Z,100342.88
2022-12-27T22:08:02.351Z,100342.94
2022-12-27T22:10:55.849Z,100338.66
2022-12-27T22:13:42.219Z,100333.47
2022-12-27T22:16:38.730Z,100334.22
2022-12-27T22:19:24.402Z,100345.44
2022-12-27T22:22:09.627Z,100349.72
2022-12-27T22:24:55.094Z,100339.38
2022-12-27T22:27:40.519Z,100340.28
2022-12-27T22:30:26.185Z,100343.75
2022-12-27T22:33:11.558Z,100353.28
2022-12-27T22:36:06.022Z,100358.38
2022-12-27T22:38:53.707Z,100354.84
2022-12-27T22:41:39.104Z,100366.94
2022-12-27T22:44:24.546Z,100360.88
2022-12-27T22:47:27.203Z,100362.59
2022-12-27T22:50:13.814Z,100368.59
2022-12-27T22:52:58.973Z,100365.97
2022-12-27T22:55:45.559Z,100365.03
2022-12-27T22:58:31.995Z,100358.94
2022-12-27T23:01:22.346Z,100353.72
2022-12-27T23:04:10.887Z,100356.38
2022-12-27T23:06:56.358Z,100350.34
2022-12-27T23:09:43.609Z,100343.44
2022-12-27T23:12:29.609Z,100346.00
2022-12-27T23:15:15.080Z,100336.47
2022-12-27T23:18:02.249Z,100336.44
2022-12-27T23:21:20.804Z,100331.31
2022-12-27T23:23:53.306Z,100319.22
2022-12-27T23:26:39.819Z,100328.66
2022-12-27T23:29:25.570Z,100330.31
2022-12-27T23:32:10.939Z,100331.97
2022-12-27T23:34:56.468Z,100327.66
2022-12-27T23:37:41.705Z,100317.28
2022-12-27T23:40:27.135Z,100323.25
2022-12-27T23:43:50.615Z,100323.22
2022-12-27T23:46:29.457Z,100317.16
2022-12-27T23:49:15.166Z,100323.28
2022-12-27T23:52:00.798Z,100335.38
2022-12-27T23:54:46.318Z,100325.84
2022-12-27T23:57:31.777Z,100310.28
